createdAt,value
2023-04-18T00:02:41.268Z,12.23
2023-04-18T00:05:48.171Z,13.00
2023-04-18T00:08:50.006Z,10.60
2023-04-18T00:11:52.316Z,13.80
2023-04-18T00:14:54.082Z,11.57
2023-04-18T00:17:56.720Z,11.83
2023-04-18T00:21:04.975Z,10.73
2023-04-18T00:24:07.058Z,13.57
2023-04-18T00:27:08.733Z,9.30
2023-04-18T00:30:11.050Z,10.90
2023-04-18T00:33:12.756Z,9.93
2023-04-18T00:36:14.503Z,11.47
2023-04-18T00:39:16.289Z,10.70
2023-04-18T00:42:17.954Z,10.53
2023-04-18T00:45:19.718Z,13.53
2023-04-18T00:48:21.427Z,10.70
2023-04-18T00:51:23.207Z,10.80
2023-04-18T00:54:27.307Z,9.97
2023-04-18T00:57:29.372Z,10.00
2023-04-18T01:00:31.506Z,12.30
2023-04-18T01:03:34.652Z,10.03
2023-04-18T01:06:36.997Z,10.43
2023-04-18T01:09:39.514Z,11.07
2023-04-18T01:12:41.350Z,10.67
2023-04-18T01:15:44.649Z,11.90
2023-04-18T01:18:46.377Z,9.87
2023-04-18T01:21:48.186Z,11.40
2023-04-18T01:24:49.879Z,12.07
2023-04-18T01:27:51.614Z,11.07
2023-04-18T01:30:54.461Z,9.23
2023-04-18T01:33:56.256Z,10.23
2023-04-18T01:36:58.144Z,10.30
2023-04-18T01:39:59.984Z,9.77
2023-04-18T01:43:01.791Z,9.93
2023-04-18T01:46:03.542Z,9.67
2023-04-18T01:49:07.796Z,9.10
2023-04-18T01:52:09.556Z,9.87
2023-04-18T01:55:11.304Z,9.27
2023-04-18T01:58:13.038Z,10.70
2023-04-18T02:01:14.816Z,12.03
2023-04-18T02:04:16.734Z,10.23
2023-04-18T02:07:18.517Z,9.70
2023-04-18T02:10:21.264Z,11.57
2023-04-18T02:13:22.992Z,10.53
2023-04-18T02:16:24.735Z,11.50
2023-04-18T02:19:27.221Z,10.57
2023-04-18T02:22:29.046Z,11.43
2023-04-18T02:25:31.120Z,10.83
2023-04-18T02:28:32.826Z,10.53
2023-04-18T02:31:37.542Z,10.37
2023-04-18T02:34:39.471Z,10.60
2023-04-18T02:37:41.178Z,10.57
2023-04-18T02:40:42.861Z,10.33
2023-04-18T02:43:44.648Z,10.30
2023-04-18T02:46:46.494Z,9.33
2023-04-18T02:49:48.237Z,9.57
2023-04-18T02:52:50.043Z,9.73
2023-04-18T02:55:51.784Z,9.80
2023-04-18T02:58:53.484Z,10.23
2023-04-18T03:01:55.288Z,9.60
2023-04-18T03:04:57.055Z,8.80
2023-04-18T03:07:58.834Z,9.77
2023-04-18T03:11:00.841Z,8.73
2023-04-18T03:14:02.561Z,8.43
2023-04-18T03:17:04.454Z,8.37
2023-04-18T03:20:06.840Z,9.00
2023-04-18T03:23:08.618Z,9.77
2023-04-18T03:26:13.108Z,8.53
2023-04-18T03:29:14.827Z,8.47
2023-04-18T03:32:17.295Z,9.07
2023-04-18T03:35:19.350Z,9.23
2023-04-18T03:38:21.413Z,8.30
2023-04-18T03:41:23.788Z,8.70
2023-04-18T03:44:25.560Z,7.90
2023-04-18T03:47:28.302Z,9.27
2023-04-18T03:50:30.117Z,9.27
2023-04-18T03:53:31.858Z,7.70
2023-04-18T03:56:33.556Z,7.73
2023-04-18T03:59:35.945Z,7.57
2023-04-18T04:02:37.782Z,9.07
2023-04-18T04:05:39.677Z,10.57
2023-04-18T04:08:41.764Z,6.33
2023-04-18T04:11:43.504Z,6.60
2023-04-18T04:14:45.250Z,6.07
2023-04-18T04:17:47.070Z,9.20
2023-04-18T04:20:49.020Z,7.00
2023-04-18T04:23:50.710Z,6.77
2023-04-18T04:26:53.264Z,7.03
2023-04-18T04:29:56.349Z,6.50
2023-04-18T04:32:58.199Z,6.27
2023-04-18T04:36:01.273Z,7.77
2023-04-18T04:39:05.856Z,7.53
2023-04-18T04:42:07.649Z,7.03
2023-04-18T04:45:10.441Z,5.63
2023-04-18T04:48:12.158Z,7.10
2023-04-18T04:51:13.935Z,5.60
2023-04-18T04:54:16.305Z,6.20
2023-04-18T04:57:18.501Z,6.57
2023-04-18T05:00:21.397Z,7.00
2023-04-18T05:03:23.352Z,6.53
2023-04-18T05:06:25.972Z,7.73
2023-04-18T05:09:27.666Z,7.87
2023-04-18T05:12:29.883Z,7.93
2023-04-18T05:15:31.941Z,5.93
2023-04-18T05:18:35.023Z,6.77
2023-04-18T05:21:37.106Z,6.40
2023-04-18T05:24:39.431Z,6.07
2023-04-18T05:27:41.208Z,6.07
2023-04-18T05:30:42.986Z,7.47
2023-04-18T05:33:44.765Z,5.60
2023-04-18T05:36:47.873Z,6.17
2023-04-18T05:39:49.601Z,5.17
2023-04-18T05:42:51.325Z,5.83
2023-04-18T05:45:54.282Z,6.40
2023-04-18T05:48:57.661Z,5.83
2023-04-18T05:51:59.516Z,6.03
2023-04-18T05:55:01.264Z,5.87
2023-04-18T05:58:02.992Z,6.60
2023-04-18T06:01:05.084Z,7.03
2023-04-18T06:04:07.581Z,7.97
2023-04-18T06:07:09.863Z,7.87
2023-04-18T06:10:13.438Z,6.67
2023-04-18T06:13:15.266Z,6.97
2023-04-18T06:16:17.138Z,7.67
2023-04-18T06:19:18.975Z,5.63
2023-04-18T06:22:20.982Z,5.80
2023-04-18T06:25:22.737Z,6.27
2023-04-18T06:28:24.907Z,6.70
2023-04-18T06:31:26.608Z,6.83
2023-04-18T06:34:28.440Z,7.00
2023-04-18T06:37:30.237Z,6.87
2023-04-18T06:40:31.955Z,6.07
2023-04-18T06:43:35.773Z,5.70
2023-04-18T06:46:37.740Z,7.37
2023-04-18T06:50:04.806Z,6.83
2023-04-18T06:53:06.654Z,6.90
2023-04-18T06:56:08.355Z,7.23
2023-04-18T06:59:10.183Z,7.03
2023-04-18T07:02:11.896Z,8.23
2023-04-18T07:05:14.102Z,8.20
2023-04-18T07:08:16.207Z,10.47
2023-04-18T07:11:28.304Z,9.50
2023-04-18T07:14:31.665Z,10.23
2023-04-18T07:17:34.776Z,11.90
2023-04-18T07:20:36.650Z,12.73
2023-04-18T07:23:38.364Z,13.30
2023-04-18T07:26:40.475Z,15.57
2023-04-18T07:29:42.174Z,17.57
2023-04-18T07:32:43.897Z,19.97
2023-04-18T07:35:46.666Z,15.60
2023-04-18T07:38:48.562Z,16.83
2023-04-18T07:41:50.388Z,18.13
2023-04-18T07:44:59.299Z,16.33
2023-04-18T07:48:01.785Z,15.83
2023-04-18T07:51:06.870Z,17.30
2023-04-18T07:54:11.000Z,18.53
2023-04-18T07:57:12.763Z,20.30
2023-04-18T08:00:15.075Z,17.13
2023-04-18T08:03:16.907Z,16.77
2023-04-18T08:06:18.966Z,17.10
2023-04-18T08:09:21.794Z,16.07
2023-04-18T08:12:23.598Z,14.27
2023-04-18T08:15:27.403Z,16.93
2023-04-18T08:18:29.269Z,15.93
2023-04-18T08:21:32.104Z,14.23
2023-04-18T08:24:33.828Z,16.17
2023-04-18T08:27:35.568Z,15.77
2023-04-18T08:30:37.495Z,16.50
2023-04-18T08:33:39.278Z,14.80
2023-04-18T08:36:41.027Z,14.73
2023-04-18T08:39:42.813Z,14.77
2023-04-18T08:42:45.037Z,16.03
2023-04-18T08:45:47.353Z,14.10
2023-04-18T08:48:51.461Z,16.80
2023-04-18T08:51:53.303Z,14.10
2023-04-18T08:54:55.117Z,13.60
2023-04-18T08:57:56.897Z,13.47
2023-04-18T09:00:58.699Z,13.43
2023-04-18T09:04:00.578Z,15.03
2023-04-18T09:07:14.407Z,12.40
2023-04-18T09:10:27.521Z,13.90
2023-04-18T09:13:47.347Z,14.10
2023-04-18T09:16:50.468Z,13.13
2023-04-18T09:19:54.520Z,14.20
2023-04-18T09:22:57.786Z,13.27
2023-04-18T09:25:59.541Z,11.73
2023-04-18T09:29:01.414Z,12.37
2023-04-18T09:32:03.288Z,12.70
2023-04-18T09:35:05.628Z,12.53
2023-04-18T09:38:08.091Z,11.60
2023-04-18T09:41:15.808Z,10.97
2023-04-18T09:44:17.885Z,13.30
2023-04-18T09:47:19.721Z,12.20
2023-04-18T09:50:21.492Z,12.00
2023-04-18T09:53:24.317Z,12.47
2023-04-18T09:56:29.506Z,11.80
2023-04-18T09:59:41.432Z,11.80
2023-04-18T10:02:49.016Z,11.53
2023-04-18T10:05:51.079Z,11.73
2023-04-18T10:08:53.739Z,11.63
2023-04-18T10:11:57.463Z,10.87
2023-04-18T10:14:59.890Z,12.73
2023-04-18T10:18:06.134Z,10.00
2023-04-18T10:21:09.465Z,12.47
2023-04-18T10:24:53.002Z,11.07
2023-04-18T10:27:57.337Z,10.10
2023-04-18T10:31:05.770Z,10.70
2023-04-18T10:34:07.939Z,10.40
2023-04-18T10:37:09.769Z,10.17
2023-04-18T10:40:11.694Z,9.93
2023-04-18T10:43:13.596Z,10.57
2023-04-18T10:46:30.299Z,10.27
2023-04-18T10:49:33.413Z,11.93
2023-04-18T10:52:35.847Z,10.43
2023-04-18T10:55:43.152Z,12.33
2023-04-18T10:58:51.059Z,12.27
2023-04-18T11:01:59.858Z,10.47
2023-04-18T11:05:06.926Z,10.00
2023-04-18T11:08:23.516Z,10.53
2023-04-18T11:11:25.265Z,10.10
2023-04-18T11:14:27.095Z,10.10
2023-04-18T11:17:32.964Z,10.40
2023-04-18T11:20:39.497Z,11.07
2023-04-18T11:23:41.456Z,11.37
2023-04-18T11:26:44.565Z,11.23
2023-04-18T11:29:55.884Z,10.77
2023-04-18T11:32:57.669Z,11.10
2023-04-18T11:35:59.640Z,12.03
2023-04-18T11:39:01.445Z,11.27
2023-04-18T11:42:03.312Z,11.20
2023-04-18T11:45:11.242Z,11.90
2023-04-18T11:48:13.858Z,12.43
2023-04-18T11:51:34.052Z,11.20
2023-04-18T11:54:38.326Z,11.73
2023-04-18T11:57:41.360Z,12.23
2023-04-18T12:00:43.109Z,11.27
2023-04-18T12:03:59.426Z,13.00
2023-04-18T12:07:02.574Z,11.57
2023-04-18T12:10:10.009Z,11.13
2023-04-18T12:13:11.801Z,11.43
2023-04-18T12:16:13.890Z,12.97
2023-04-18T12:19:16.038Z,11.23
2023-04-18T12:22:17.866Z,11.93
2023-04-18T12:25:26.266Z,12.17
2023-04-18T12:28:29.844Z,13.33
2023-04-18T12:31:31.685Z,11.33
2023-04-18T12:34:33.415Z,11.63
2023-04-18T12:37:35.119Z,11.57
2023-04-18T12:40:39.576Z,12.67
2023-04-18T12:43:41.316Z,10.73
2023-04-18T12:46:43.194Z,10.70
2023-04-18T12:49:44.988Z,10.40
2023-04-18T12:52:46.979Z,9.83
2023-04-18T12:55:48.737Z,10.37
2023-04-18T12:58:50.785Z,10.93
2023-04-18T13:01:52.505Z,9.30
2023-04-18T13:04:54.584Z,9.80
2023-04-18T13:08:08.461Z,9.67
2023-04-18T13:11:14.989Z,9.90
2023-04-18T13:14:16.726Z,9.53
2023-04-18T13:17:18.552Z,9.27
2023-04-18T13:20:20.426Z,9.87
2023-04-18T13:23:22.249Z,10.40
2023-04-18T13:26:24.016Z,10.43
2023-04-18T13:29:25.841Z,8.83
2023-04-18T13:32:27.630Z,9.40
2023-04-18T13:35:30.020Z,9.70
2023-04-18T13:38:31.781Z,10.00
2023-04-18T13:41:33.525Z,9.40
2023-04-18T13:44:36.978Z,9.60
2023-04-18T13:47:39.398Z,9.67
2023-04-18T13:50:42.447Z,10.67
2023-04-18T13:53:44.195Z,10.23
2023-04-18T13:56:46.118Z,9.77
2023-04-18T13:59:47.851Z,10.93
2023-04-18T14:02:49.748Z,9.30
2023-04-18T14:05:51.731Z,9.50
2023-04-18T14:08:53.973Z,9.03
2023-04-18T14:11:55.824Z,10.63
2023-04-18T14:14:57.621Z,9.50
2023-04-18T14:18:01.062Z,8.67
2023-04-18T14:21:02.886Z,9.20
2023-04-18T14:24:05.892Z,10.47
2023-04-18T14:27:07.679Z,9.30
2023-04-18T14:30:10.298Z,8.27
2023-04-18T14:33:12.563Z,9.37
2023-04-18T14:36:17.300Z,10.33
2023-04-18T14:39:19.078Z,9.10
2023-04-18T14:42:20.868Z,8.83
2023-04-18T14:45:22.982Z,9.20
2023-04-18T14:48:24.790Z,8.97
2023-04-18T14:51:26.581Z,8.70
2023-04-18T14:54:29.241Z,17.70
2023-04-18T14:57:31.866Z,9.77
2023-04-18T15:00:33.692Z,8.90
2023-04-18T15:03:35.728Z,8.33
2023-04-18T15:06:37.751Z,8.33
2023-04-18T15:09:39.682Z,7.90
2023-04-18T15:12:43.529Z,8.80
2023-04-18T15:15:51.986Z,7.83
2023-04-18T15:18:56.994Z,8.03
2023-04-18T15:21:58.844Z,10.17
2023-04-18T15:25:00.657Z,7.93
2023-04-18T15:28:02.481Z,7.83
2023-04-18T15:31:07.309Z,9.03
2023-04-18T15:34:09.172Z,8.20
2023-04-18T15:37:11.284Z,7.87
2023-04-18T15:40:16.171Z,8.93
2023-04-18T15:43:18.307Z,7.53
2023-04-18T15:46:20.259Z,8.50
2023-04-18T15:49:22.658Z,8.83
2023-04-18T15:52:24.658Z,8.73
2023-04-18T15:55:29.698Z,9.43
2023-04-18T15:58:31.703Z,9.20
2023-04-18T16:01:35.521Z,9.23
2023-04-18T16:04:37.356Z,9.37
2023-04-18T16:07:40.609Z,8.27
2023-04-18T16:10:42.601Z,8.57
2023-04-18T16:13:44.433Z,9.77
2023-04-18T16:16:46.262Z,8.97
2023-04-18T16:19:48.073Z,9.03
2023-04-18T16:22:49.822Z,13.03
2023-04-18T16:25:54.831Z,10.33
2023-04-18T16:28:57.014Z,13.00
2023-04-18T16:31:58.829Z,10.23
2023-04-18T16:35:00.593Z,11.00
2023-04-18T16:38:02.527Z,9.63
2023-04-18T16:41:04.381Z,10.77
2023-04-18T16:44:06.186Z,9.97
2023-04-18T16:47:08.459Z,11.60
2023-04-18T16:50:10.490Z,10.63
2023-04-18T16:53:12.417Z,10.80
2023-04-18T16:56:14.281Z,9.50
2023-04-18T16:59:16.100Z,12.07
2023-04-18T17:02:19.150Z,11.00
2023-04-18T17:05:23.106Z,10.40
2023-04-18T17:08:27.048Z,10.90
2023-04-18T17:11:28.839Z,10.47
2023-04-18T17:14:30.639Z,10.53
2023-04-18T17:17:32.436Z,10.97
2023-04-18T17:20:36.279Z,10.93
2023-04-18T17:23:42.646Z,12.07
2023-04-18T17:26:44.777Z,10.07
2023-04-18T17:29:46.601Z,12.73
2023-04-18T17:32:49.156Z,13.57
2023-04-18T17:35:51.258Z,11.23
2023-04-18T17:38:53.109Z,11.53
2023-04-18T17:41:54.891Z,15.23
2023-04-18T17:44:56.654Z,11.50
2023-04-18T17:47:59.560Z,11.83
2023-04-18T17:51:02.160Z,12.80
2023-04-18T17:54:22.273Z,13.37
2023-04-18T17:57:25.989Z,11.17
2023-04-18T18:00:27.861Z,11.13
2023-04-18T18:03:29.932Z,12.50
2023-04-18T18:06:31.799Z,11.80
2023-04-18T18:09:33.585Z,13.67
2023-04-18T18:12:36.529Z,14.83
2023-04-18T18:15:38.528Z,13.77
2023-04-18T18:18:40.698Z,13.03
2023-04-18T18:21:43.243Z,12.00
2023-04-18T18:24:45.819Z,11.30
2023-04-18T18:27:47.933Z,12.93
2023-04-18T18:30:49.888Z,12.90
2023-04-18T18:33:52.232Z,13.30
2023-04-18T18:36:53.986Z,12.40
2023-04-18T18:39:59.781Z,15.43
2023-04-18T18:43:01.835Z,14.33
2023-04-18T18:46:03.708Z,12.87
2023-04-18T18:49:05.712Z,13.10
2023-04-18T18:52:07.682Z,12.80
2023-04-18T18:55:12.666Z,16.10
2023-04-18T18:58:14.510Z,15.30
2023-04-18T19:01:16.445Z,15.93
2023-04-18T19:04:18.384Z,14.50
2023-04-18T19:07:20.626Z,14.27
2023-04-18T19:10:22.540Z,15.20
2023-04-18T19:13:24.560Z,15.57
2023-04-18T19:16:29.000Z,13.87
2023-04-18T19:19:30.966Z,14.07
2023-04-18T19:22:32.747Z,14.90
2023-04-18T19:25:34.507Z,14.03
2023-04-18T19:28:36.294Z,14.00
2023-04-18T19:31:38.383Z,16.33
2023-04-18T19:34:41.323Z,14.57
2023-04-18T19:37:43.345Z,14.73
2023-04-18T19:40:45.594Z,15.27
2023-04-18T19:43:47.833Z,15.67
2023-04-18T19:46:49.619Z,12.87
2023-04-18T19:49:51.356Z,14.03
2023-04-18T19:52:53.081Z,13.13
2023-04-18T19:55:55.830Z,16.10
2023-04-18T19:58:58.032Z,14.33
2023-04-18T20:06:22.439Z,15.77
2023-04-18T20:09:24.081Z,19.57
2023-04-18T20:12:25.877Z,14.83
2023-04-18T20:19:50.975Z,17.50
2023-04-18T20:22:52.752Z,16.47
2023-04-18T20:25:54.398Z,17.60
2023-04-18T20:28:56.142Z,17.77
2023-04-18T20:31:57.901Z,16.60
2023-04-18T20:34:59.896Z,18.40
2023-04-18T20:38:03.633Z,17.60
2023-04-18T20:41:06.157Z,18.00
2023-04-18T20:44:09.994Z,16.20
2023-04-18T20:47:13.314Z,17.47
2023-04-18T20:54:33.784Z,22.23
2023-04-18T20:57:36.071Z,17.07
2023-04-18T21:00:41.091Z,19.03
2023-04-18T21:03:42.966Z,18.77
2023-04-18T21:06:44.750Z,17.77
2023-04-18T21:09:58.651Z,16.70
2023-04-18T21:13:00.366Z,17.33
2023-04-18T21:16:03.420Z,15.43
2023-04-18T21:19:06.521Z,18.13
2023-04-18T21:22:08.280Z,17.73
2023-04-18T21:25:10.686Z,16.47
2023-04-18T21:28:12.538Z,16.67
2023-04-18T21:31:14.214Z,16.23
2023-04-18T21:34:16.295Z,14.70
2023-04-18T21:37:18.154Z,14.83
2023-04-18T21:40:19.957Z,13.93
2023-04-18T21:43:21.755Z,14.83
2023-04-18T21:46:23.640Z,13.83
2023-04-18T21:49:25.755Z,12.17
2023-04-18T21:52:27.517Z,13.27
2023-04-18T21:55:29.279Z,11.07
2023-04-18T21:58:31.175Z,11.57
2023-04-18T22:01:35.866Z,12.70
2023-04-18T22:04:38.175Z,9.87
2023-04-18T22:07:54.318Z,11.20
2023-04-18T22:11:00.276Z,9.10
2023-04-18T22:14:02.089Z,9.90
2023-04-18T22:17:04.901Z,8.63
2023-04-18T22:20:08.374Z,8.30
2023-04-18T22:23:10.950Z,10.83
2023-04-18T22:26:12.760Z,8.87
2023-04-18T22:29:14.486Z,8.63
2023-04-18T22:32:16.274Z,8.10
2023-04-18T22:35:18.332Z,10.50
2023-04-18T22:38:20.131Z,9.23
2023-04-18T22:41:21.889Z,8.17
2023-04-18T22:44:23.743Z,9.33
2023-04-18T22:47:26.002Z,8.73
2023-04-18T22:50:27.797Z,7.77
2023-04-18T22:53:29.588Z,7.90
2023-04-18T22:56:31.322Z,8.70
2023-04-18T22:59:33.085Z,7.87
2023-04-18T23:02:35.008Z,8.23
2023-04-18T23:05:36.936Z,6.73
2023-04-18T23:08:38.695Z,7.43
2023-04-18T23:11:40.594Z,7.03
2023-04-18T23:14:42.330Z,6.67
2023-04-18T23:17:44.120Z,6.60
2023-04-18T23:20:46.143Z,7.20
2023-04-18T23:23:47.936Z,6.63
2023-04-18T23:26:49.747Z,7.30
2023-04-18T23:29:51.509Z,6.43
2023-04-18T23:32:53.870Z,7.23
2023-04-18T23:35:55.763Z,6.67
2023-04-18T23:38:57.571Z,6.50
2023-04-18T23:41:59.361Z,6.30
2023-04-18T23:45:01.429Z,6.17
2023-04-18T23:48:03.404Z,5.87
2023-04-18T23:51:05.266Z,6.50
2023-04-18T23:54:07.548Z,6.30
2023-04-18T23:57:09.365Z,5.90
